Terminal Aerodrome Forecast
Issued by NWS

Home | Current Version | Previous Version | Text Only | Print | Product List | Glossary On
Versions: 1 2 3 4 5 6 7 8 9 10 11 12 13 14 15 16 17 18 19 20
000
FTUS45 KVEF 111700
TAFHND
TAF
KHND 111720Z 1118/1218 04006KT P6SM FEW120 BKN180
     FM112000 14007KT P6SM FEW120
     FM112300 19010KT P6SM FEW120=

USA.gov is the U.S. government's official web portal to all federal, state and local government web resources and services.